Time;durP1;ratioP1;P1;durP2;ratioP2;P2;SDS_P1;SDS_P2;PMS_P1;PMS_P2;Temp;Humidity;BMP_temperature;BMP_pressure;BME280_temperature;BME280_humidity;BME280_pressure;Samples;Min_cycle;Max_cycle;Signal;HPM_P1;HPM_P2
2023/03/20 00:02:18;;;;;;;50.38;25.05;;;9.70;99.90;;;-144.05;71.01;56921.06;4993276;28;20054;-77
2023/03/20 00:04:44;;;;;;;44.83;25.02;;;9.70;99.90;;;-144.05;71.58;56925.28;4992465;28;20038;-77
2023/03/20 00:07:11;;;;;;;45.97;22.30;;;9.70;99.90;;;-144.05;71.26;56927.41;4992924;28;20027;-75
2023/03/20 00:09:38;;;;;;;49.90;25.48;;;9.70;99.90;;;-144.05;70.91;56927.41;4990836;28;20034;-77
2023/03/20 00:12:05;;;;;;;43.10;23.25;;;9.70;99.90;;;-144.05;71.17;56904.06;4991315;28;20030;-76
2023/03/20 00:14:33;;;;;;;41.55;22.33;;;9.60;99.90;;;-144.05;70.41;56910.44;4995055;28;20447;-75
2023/03/20 00:17:00;;;;;;;50.22;24.50;;;9.60;99.90;;;-144.05;70.56;56933.78;4993864;28;20041;-74
2023/03/20 00:19:29;;;;;;;45.63;22.42;;;9.60;99.90;;;-144.05;70.71;56927.41;4992854;28;20068;-76
2023/03/20 00:21:57;;;;;;;41.40;21.75;;;9.60;99.90;;;-144.05;70.78;56912.56;4991220;28;20022;-75
2023/03/20 00:24:24;;;;;;;41.83;21.80;;;9.50;99.90;;;-144.05;70.58;56891.31;4992171;28;20030;-77
2023/03/20 00:26:52;;;;;;;42.08;22.25;;;9.50;99.90;;;-144.05;70.34;56916.81;4992657;28;20069;-78
2023/03/20 00:29:29;;;;;;;44.38;22.70;;;9.50;99.90;;;-144.05;70.36;56908.31;4992220;28;20030;-77
2023/03/20 00:31:57;;;;;;;43.08;22.90;;;9.40;99.90;;;-144.05;70.65;56929.53;4992701;28;20030;-77
2023/03/20 00:34:28;;;;;;;39.50;21.35;;;9.40;99.90;;;-144.05;70.13;56891.31;4992608;28;20033;-77
2023/03/20 00:36:55;;;;;;;42.20;22.80;;;9.40;99.90;;;-144.05;70.31;56901.94;4991839;28;20038;-75
2023/03/20 00:39:22;;;;;;;39.28;21.80;;;9.40;99.90;;;-144.05;70.98;56929.53;4990459;28;20081;-76
2023/03/20 00:42:05;;;;;;;49.92;24.90;;;9.40;99.90;;;-144.05;70.82;56929.53;4992726;28;20540;-76
2023/03/20 00:44:47;;;;;;;42.33;23.58;;;9.40;99.90;;;-144.05;70.61;56916.81;4974397;28;20038;-76
2023/03/20 00:47:20;;;;;;;41.60;22.25;;;9.40;99.90;;;-144.05;70.25;56931.66;4991667;28;20101;-77
2023/03/20 00:49:51;;;;;;;48.25;24.15;;;9.40;99.90;;;-144.05;69.99;56927.41;4989914;28;20112;-75
2023/03/20 00:52:20;;;;;;;51.42;26.25;;;9.30;99.90;;;-144.05;70.36;56921.06;4991994;28;20030;-76
2023/03/20 00:54:47;;;;;;;58.75;28.20;;;9.30;99.90;;;-144.05;70.70;56929.53;4992053;28;20081;-78
2023/03/20 00:57:41;;;;;;;60.42;30.88;;;9.30;99.90;;;-144.05;70.90;56933.78;4991849;28;20034;-77
2023/03/20 01:00:34;;;;;;;56.25;28.33;;;9.20;99.90;;;-144.05;71.44;56921.06;4992021;28;20030;-75
2023/03/20 01:03:15;;;;;;;51.30;27.70;;;9.20;99.90;;;-144.05;71.54;56912.56;4974166;28;20030;-75
2023/03/20 01:05:42;;;;;;;50.05;26.70;;;9.10;99.90;;;-144.05;71.70;56916.81;4990554;28;20037;-77
2023/03/20 01:08:23;;;;;;;47.17;25.50;;;9.10;99.90;;;-144.05;72.31;56921.06;4995400;28;20062;-76
2023/03/20 01:10:55;;;;;;;48.25;23.98;;;9.00;99.90;;;-144.05;71.60;56927.41;5002642;28;20120;-77
2023/03/20 01:13:26;;;;;;;43.55;22.05;;;9.00;99.90;;;-144.05;71.67;56938.03;5005644;28;20106;-76
2023/03/20 01:15:56;;;;;;;41.92;23.70;;;8.90;99.90;;;-144.05;71.80;56914.69;5001337;28;20035;-77
2023/03/20 01:18:25;;;;;;;42.92;23.83;;;8.90;99.90;;;-144.05;71.32;56914.69;4998324;28;20042;-77
2023/03/20 01:20:52;;;;;;;46.63;22.88;;;8.90;99.90;;;-144.05;71.50;56925.28;5001080;28;20030;-77
2023/03/20 01:23:21;;;;;;;39.25;21.38;;;8.80;99.90;;;-144.05;71.40;56929.53;4999619;28;20027;-76
2023/03/20 01:25:49;;;;;;;37.22;20.45;;;8.80;99.90;;;-144.05;71.43;56933.78;4999779;28;20153;-77
2023/03/20 01:28:22;;;;;;;37.20;19.27;;;8.80;99.90;;;-144.05;71.08;56908.31;4992964;28;20092;-78
2023/03/20 01:30:49;;;;;;;38.38;20.30;;;8.80;99.90;;;-144.05;71.08;56931.66;4995525;28;20033;-77
2023/03/20 01:33:22;;;;;;;35.75;20.05;;;8.80;99.90;;;-144.05;70.43;56914.69;4995749;28;20018;-77
2023/03/20 01:35:50;;;;;;;40.63;21.40;;;8.80;99.90;;;-144.05;70.74;56944.41;4995695;28;20478;-77
2023/03/20 01:38:27;;;;;;;41.80;22.65;;;8.80;99.90;;;-144.05;70.44;56923.19;4995310;28;20616;-77
2023/03/20 01:41:11;;;;;;;42.83;23.08;;;8.80;99.90;;;-144.05;70.56;56906.19;4993800;28;20034;-77
2023/03/20 01:43:38;;;;;;;41.80;23.20;;;8.80;99.90;;;-144.05;70.54;56912.56;4995414;28;20113;-77
2023/03/20 01:46:18;;;;;;;44.40;23.08;;;8.80;99.90;;;-144.05;70.41;56955.03;4995471;28;20133;-78
2023/03/20 01:48:53;;;;;;;46.15;24.05;;;8.70;99.90;;;-144.05;71.16;56901.94;4994062;28;20034;-76
2023/03/20 01:51:31;;;;;;;45.60;24.35;;;8.80;99.90;;;-144.05;71.10;56933.78;4993716;28;20035;-77
2023/03/20 01:54:15;;;;;;;42.33;22.20;;;8.70;99.90;;;-144.05;70.63;56916.81;4994890;28;20081;-76
2023/03/20 01:57:03;;;;;;;51.75;24.98;;;8.70;99.90;;;-144.05;70.80;56914.69;4995174;28;20085;-77
2023/03/20 01:59:39;;;;;;;44.35;24.63;;;8.70;99.90;;;-144.05;70.21;56931.66;4994838;28;20066;-77
2023/03/20 02:02:09;;;;;;;42.88;23.73;;;8.80;99.90;;;-144.05;70.32;56921.06;4995157;28;20057;-77
2023/03/20 02:04:45;;;;;;;48.47;26.73;;;8.80;99.90;;;-144.05;69.87;56916.81;4994998;28;20026;-76
2023/03/20 02:07:19;;;;;;;47.72;25.33;;;8.70;99.90;;;-144.05;70.26;56933.78;4995051;28;20508;-77
2023/03/20 02:09:48;;;;;;;45.67;22.73;;;8.70;99.90;;;-144.05;70.50;56940.16;4994824;28;20085;-77
2023/03/20 02:12:17;;;;;;;38.22;20.55;;;8.70;99.90;;;-144.05;70.51;56929.53;4993725;28;20092;-77
2023/03/20 02:14:47;;;;;;;31.55;17.90;;;8.70;99.90;;;-144.05;70.50;56921.06;4994756;28;20034;-77
2023/03/20 02:17:14;;;;;;;32.17;18.42;;;8.70;99.90;;;-144.05;70.42;56948.66;4994613;28;20077;-77
2023/03/20 02:20:15;;;;;;;33.97;19.40;;;8.60;99.90;;;-144.05;69.88;56940.16;4977007;28;20072;-77
2023/03/20 02:23:12;;;;;;;33.17;18.88;;;8.60;99.90;;;-144.05;69.77;56933.78;4992766;28;20031;-77
2023/03/20 02:26:34;;;;;;;34.55;18.10;;;8.60;99.90;;;-144.05;69.87;56925.28;4993319;28;20513;-76
2023/03/20 02:29:24;;;;;;;33.50;18.35;;;8.60;99.90;;;-144.05;70.21;56933.78;4976625;28;20048;-75
2023/03/20 02:32:49;;;;;;;35.58;18.95;;;8.60;99.90;;;-144.05;70.72;56935.91;4992880;28;20156;-78
2023/03/20 02:36:07;;;;;;;34.00;19.08;;;8.60;99.90;;;-144.05;71.22;56933.78;4994312;28;20026;-78
2023/03/20 02:38:47;;;;;;;35.22;18.80;;;8.60;99.90;;;-144.05;70.71;56933.78;4992843;28;20036;-77
2023/03/20 02:41:41;;;;;;;33.08;18.83;;;8.60;99.90;;;-144.05;70.54;56923.19;4992839;28;20030;-77
2023/03/20 02:45:05;;;;;;;34.72;18.20;;;8.50;99.90;;;-144.05;70.53;56925.28;4976546;28;20401;-77
2023/03/20 02:47:48;;;;;;;35.15;15.73;;;8.50;99.90;;;-144.05;70.37;56940.16;4994533;28;20394;-78
2023/03/20 02:50:48;;;;;;;31.05;17.92;;;8.50;99.90;;;-144.05;70.59;56916.81;4994070;28;20103;-77
2023/03/20 02:54:09;;;;;;;33.47;16.55;;;8.40;99.90;;;-144.05;70.23;56938.03;4994242;28;20049;-76
2023/03/20 02:56:50;;;;;;;32.50;16.65;;;8.40;99.90;;;-144.05;70.40;56942.28;4992554;28;20034;-77
2023/03/20 02:59:27;;;;;;;27.80;15.73;;;8.40;99.90;;;-144.05;70.26;56929.53;4994261;28;20054;-77
2023/03/20 03:02:04;;;;;;;29.67;16.42;;;8.40;99.90;;;-144.05;70.09;56918.94;4993777;28;20042;-78
2023/03/20 03:05:00;;;;;;;29.38;14.30;;;8.40;99.90;;;-144.05;70.56;56940.16;4994013;28;20393;-77
2023/03/20 03:07:33;;;;;;;23.02;13.15;;;8.40;99.90;;;-144.05;69.83;56940.16;4993220;28;20184;-75
2023/03/20 03:10:10;;;;;;;21.92;13.45;;;8.40;99.90;;;-144.05;69.72;56929.53;4993179;28;20037;-75
2023/03/20 03:12:44;;;;;;;25.02;13.20;;;8.40;99.90;;;-144.05;69.12;56940.16;4993447;28;20486;-75
2023/03/20 03:15:38;;;;;;;18.58;11.25;;;8.40;99.90;;;-144.05;67.86;56931.66;4994338;28;20039;-77
2023/03/20 03:18:13;;;;;;;21.05;11.95;;;8.40;99.90;;;-144.05;67.49;56918.94;4993459;28;20058;-77
2023/03/20 03:20:42;;;;;;;18.17;10.57;;;8.40;99.90;;;-144.05;66.68;56929.53;4993209;28;20084;-77
2023/03/20 03:23:43;;;;;;;19.30;9.90;;;8.40;99.90;;;-144.05;66.25;56916.81;4993159;28;20026;-77
2023/03/20 03:26:27;;;;;;;14.30;9.23;;;8.30;99.90;;;-144.05;65.75;56948.66;4993845;28;20430;-77
2023/03/20 03:29:16;;;;;;;16.23;9.30;;;8.30;99.90;;;-144.05;65.70;56925.28;4993009;28;20080;-77
2023/03/20 03:31:44;;;;;;;13.48;8.63;;;8.20;99.90;;;-144.05;65.78;56929.53;4992518;28;20116;-77
2023/03/20 03:34:20;;;;;;;17.10;8.95;;;8.20;99.90;;;-144.05;66.38;56923.19;4993174;28;20117;-77
2023/03/20 03:36:53;;;;;;;16.70;8.45;;;8.20;99.90;;;-144.05;65.72;56927.41;4993718;28;20045;-78
2023/03/20 03:39:49;;;;;;;13.75;7.10;;;8.10;99.90;;;-144.05;65.45;56942.28;4993017;28;20034;-77
2023/03/20 03:42:50;;;;;;;11.50;6.40;;;8.10;99.90;;;-144.05;65.19;56942.28;4993021;28;20019;-78
2023/03/20 03:45:32;;;;;;;7.55;5.40;;;8.00;99.90;;;-144.05;65.17;56963.53;4965960;28;20069;-77
2023/03/20 03:48:22;;;;;;;9.35;5.38;;;8.00;99.90;;;-144.05;64.95;56938.03;4992862;28;20034;-76
2023/03/20 03:50:59;;;;;;;8.10;4.93;;;7.90;99.90;;;-144.05;64.86;56925.28;4991920;28;20037;-77
2023/03/20 03:53:40;;;;;;;10.10;5.13;;;8.00;99.90;;;-144.05;65.22;56938.03;4992855;28;20026;-77
2023/03/20 03:56:14;;;;;;;8.45;4.65;;;7.90;99.90;;;-144.05;65.31;56925.28;4992931;28;20124;-77
2023/03/20 03:58:52;;;;;;;9.65;5.07;;;7.90;99.90;;;-144.05;65.13;56935.91;4991464;28;20049;-75
2023/03/20 04:01:26;;;;;;;9.60;5.30;;;7.90;99.90;;;-144.05;65.13;56942.28;4992429;28;20030;-76
2023/03/20 04:04:01;;;;;;;11.55;5.35;;;7.90;99.90;;;-144.05;65.41;56950.78;4992599;28;20022;-77
2023/03/20 04:06:28;;;;;;;;;;;7.90;99.90;;;-144.05;65.11;56935.91;4993386;28;20062;-77
2023/03/20 04:08:54;;;;;;;;;;;7.80;99.90;;;-144.05;64.89;56938.03;4994443;28;19910;-77
2023/03/20 04:11:25;;;;;;;10.25;4.88;;;7.80;99.90;;;-144.05;65.29;56933.78;4992660;28;19944;-77
2023/03/20 04:13:51;;;;;;;9.52;5.00;;;7.70;99.90;;;-144.05;65.99;56946.53;4992624;28;20414;-77
2023/03/20 04:16:23;;;;;;;11.40;5.20;;;7.70;99.90;;;-144.05;65.88;56938.03;4975149;28;20027;-77
2023/03/20 04:18:50;;;;;;;9.63;5.18;;;7.70;99.90;;;-144.05;66.12;56955.03;4992482;28;20098;-78
2023/03/20 04:21:16;;;;;;;14.35;5.70;;;7.70;99.90;;;-144.05;66.21;56950.78;4992184;28;20367;-75
2023/03/20 04:23:43;;;;;;;11.65;6.43;;;7.70;99.90;;;-144.05;66.57;56942.28;4993393;28;20030;-76
2023/03/20 04:26:09;;;;;;;12.30;6.68;;;7.70;99.90;;;-144.05;67.34;56929.53;4993151;28;20486;-74
2023/03/20 04:28:34;;;;;;;12.85;7.38;;;7.70;99.90;;;-144.05;67.40;56931.66;4992713;28;20428;-76
2023/03/20 04:31:02;;;;;;;13.70;8.07;;;7.70;99.90;;;-144.05;67.72;56921.06;5007530;28;20095;-76
2023/03/20 04:33:28;;;;;;;18.95;8.57;;;7.80;99.90;;;-144.05;67.77;56942.28;5008343;28;20049;-74
2023/03/20 04:35:55;;;;;;;15.13;8.73;;;7.80;99.90;;;-144.05;68.03;56929.53;5009520;28;20177;-76
2023/03/20 04:38:23;;;;;;;17.15;8.65;;;7.80;99.90;;;-144.05;68.36;56925.28;5010499;28;20038;-76
2023/03/20 04:40:49;;;;;;;20.05;9.77;;;7.80;99.90;;;-144.05;68.44;56925.28;5001781;28;20034;-75
2023/03/20 04:43:16;;;;;;;16.65;8.93;;;7.80;99.90;;;-144.05;69.26;56955.03;5005170;28;20034;-77
2023/03/20 04:45:42;;;;;;;20.65;9.60;;;7.80;99.90;;;-144.05;69.24;56916.81;4991744;28;20026;-77
2023/03/20 04:48:09;;;;;;;16.90;9.60;;;7.80;99.90;;;-144.05;69.25;56948.66;4991662;28;20053;-77
2023/03/20 04:50:35;;;;;;;17.85;9.30;;;7.80;99.90;;;-144.05;69.20;56942.28;4991952;28;20030;-76
2023/03/20 04:53:00;;;;;;;14.73;8.27;;;7.80;99.90;;;-144.05;68.81;56961.41;4992603;28;20035;-76
2023/03/20 04:55:26;;;;;;;16.30;9.23;;;7.80;99.90;;;-144.05;69.39;56929.53;4992075;28;20046;-77
2023/03/20 04:57:52;;;;;;;21.70;10.40;;;7.70;99.90;;;-144.05;69.72;56944.41;4993296;28;20034;-77
2023/03/20 05:02:46;;;;;;;22.30;10.73;;;7.60;99.90;;;-144.05;69.84;56946.53;5009968;28;20084;-74
2023/03/20 05:05:12;;;;;;;20.50;10.05;;;7.70;99.90;;;-144.05;69.50;56957.16;5013799;28;20026;-74
2023/03/20 05:07:38;;;;;;;22.23;10.80;;;7.60;99.90;;;-144.05;69.50;56955.03;5015529;28;20113;-76
2023/03/20 05:10:05;;;;;;;19.35;11.25;;;7.60;99.90;;;-144.05;69.93;56963.53;5016670;28;20057;-75
2023/03/20 05:12:31;;;;;;;23.42;13.25;;;7.50;99.90;;;-144.05;70.32;56959.28;5017445;28;20057;-75
2023/03/20 05:14:57;;;;;;;25.30;11.80;;;7.50;99.90;;;-144.05;69.92;56899.81;5015109;28;20053;-76
2023/03/20 05:17:23;;;;;;;22.73;12.00;;;7.50;99.90;;;-144.05;70.26;56923.19;4997902;28;20057;-76
2023/03/20 05:19:49;;;;;;;23.48;11.68;;;7.50;99.90;;;-144.05;70.51;56927.41;4997217;28;20043;-76
2023/03/20 05:22:17;;;;;;;23.52;12.88;;;7.50;99.90;;;-144.05;70.34;56935.91;5015597;28;20383;-77
2023/03/20 05:24:43;;;;;;;25.30;12.98;;;7.50;99.90;;;-144.05;70.67;56931.66;5015201;28;20025;-77
2023/03/20 05:27:09;;;;;;;23.80;12.63;;;7.40;99.90;;;-144.05;70.59;56938.03;5015453;28;20026;-74
2023/03/20 05:29:35;;;;;;;27.88;13.75;;;7.50;99.90;;;-144.05;70.06;56944.41;4997200;28;20030;-77
2023/03/20 05:32:01;;;;;;;25.70;13.52;;;7.50;99.90;;;-144.05;70.49;56940.16;4997581;28;20107;-75
2023/03/20 05:34:26;;;;;;;28.33;13.52;;;7.50;99.90;;;-144.05;70.81;56925.28;5015561;28;20034;-75
2023/03/20 05:36:53;;;;;;;24.30;13.52;;;7.50;99.90;;;-144.05;70.53;56942.28;5015126;28;20045;-76
2023/03/20 05:39:19;;;;;;;24.60;12.73;;;7.50;99.90;;;-144.05;70.37;56944.41;5015041;28;20041;-75
2023/03/20 05:41:45;;;;;;;25.48;13.88;;;7.50;99.90;;;-144.05;70.09;56961.41;5014721;28;20022;-76
2023/03/20 05:44:11;;;;;;;25.65;13.23;;;7.50;99.90;;;-144.05;70.49;56938.03;4997276;28;20034;-77
2023/03/20 05:46:37;;;;;;;24.65;13.48;;;7.50;99.90;;;-144.05;70.53;56959.28;4997349;28;20409;-77
2023/03/20 05:49:03;;;;;;;26.17;12.50;;;7.50;99.90;;;-144.05;70.23;56923.19;4997015;28;20030;-74
2023/03/20 05:51:29;;;;;;;24.63;13.02;;;7.50;99.90;;;-144.05;70.14;56952.91;5015096;28;20416;-76
2023/03/20 05:53:55;;;;;;;23.17;13.10;;;7.40;99.90;;;-144.05;70.58;56961.41;5015130;28;20029;-75
2023/03/20 05:56:20;;;;;;;29.27;14.75;;;7.40;99.90;;;-144.05;70.99;56942.28;5014634;28;20102;-75
2023/03/20 05:58:46;;;;;;;26.35;14.18;;;7.50;99.90;;;-144.05;70.39;56950.78;5014088;28;20031;-75
2023/03/20 06:01:15;;;;;;;24.55;13.32;;;7.40;99.90;;;-144.05;70.45;56927.41;5014150;28;20033;-75
2023/03/20 06:03:41;;;;;;;27.48;13.80;;;7.40;99.90;;;-144.05;70.71;56929.53;5016132;28;20034;-75
2023/03/20 06:06:07;;;;;;;26.23;14.25;;;7.40;99.90;;;-144.05;70.30;56935.91;5014389;28;20057;-76
2023/03/20 06:08:35;;;;;;;26.13;13.48;;;7.40;99.90;;;-144.05;70.76;56921.06;5014201;28;20034;-75
2023/03/20 06:11:02;;;;;;;28.92;13.90;;;7.40;99.90;;;-144.05;71.26;56938.03;5014101;28;20505;-75
2023/03/20 06:13:28;;;;;;;23.98;13.25;;;7.30;99.90;;;-144.05;71.27;56933.78;5013817;28;20399;-74
2023/03/20 06:15:55;;;;;;;29.55;13.85;;;7.30;99.90;;;-144.05;71.40;56961.41;4995420;28;20184;-77
2023/03/20 06:18:21;;;;;;;27.20;13.85;;;7.30;99.90;;;-144.05;71.53;56942.28;5014516;28;20034;-77
2023/03/20 06:20:53;;;;;;;30.48;14.02;;;7.40;99.90;;;-144.05;71.50;56942.28;4996535;28;20402;-75
2023/03/20 06:23:20;;;;;;;28.05;14.73;;;7.40;99.90;;;-144.05;71.13;56916.81;5014414;28;20390;-75
2023/03/20 06:25:47;;;;;;;25.35;13.65;;;7.40;99.90;;;-144.05;71.54;56944.41;5013815;28;20041;-75
2023/03/20 06:28:13;;;;;;;33.10;14.73;;;7.40;99.90;;;-144.05;71.41;56952.91;5013784;28;20029;-75
2023/03/20 06:30:39;;;;;;;28.80;14.27;;;7.50;99.90;;;-144.05;71.18;56935.91;5013987;28;20080;-77
2023/03/20 06:33:08;;;;;;;27.20;14.45;;;7.50;99.90;;;-144.05;70.79;56950.78;5014091;28;20038;-76
2023/03/20 06:35:35;;;;;;;31.05;14.23;;;7.50;99.90;;;-144.05;70.26;56946.53;5012444;28;20026;-74
2023/03/20 06:38:01;;;;;;;28.60;13.75;;;7.60;99.90;;;-144.05;70.19;56955.03;5013265;28;20044;-76
2023/03/20 06:40:27;;;;;;;31.05;14.95;;;7.60;99.90;;;-144.05;70.83;56925.28;5013926;28;20052;-74
2023/03/20 06:42:54;;;;;;;29.17;12.93;;;7.60;99.90;;;-144.05;70.27;56950.78;5013599;28;20026;-76
2023/03/20 06:45:21;;;;;;;27.38;13.43;;;7.60;99.90;;;-144.05;70.31;56942.28;5013030;28;20026;-76
2023/03/20 06:47:47;;;;;;;29.58;12.95;;;7.60;99.90;;;-144.05;70.18;56955.03;4995987;28;20092;-76
2023/03/20 06:50:14;;;;;;;24.75;14.00;;;7.50;99.90;;;-144.05;69.96;56938.03;5012975;28;20076;-76
2023/03/20 06:52:40;;;;;;;26.60;13.85;;;7.60;99.90;;;-144.05;69.94;56933.78;5013700;28;20034;-76
2023/03/20 06:55:07;;;;;;;24.83;13.45;;;7.60;99.90;;;-144.05;69.48;56938.03;4996595;28;20088;-76
2023/03/20 06:57:33;;;;;;;25.90;13.80;;;7.60;99.90;;;-144.05;69.24;56944.41;5013143;28;20458;-76
2023/03/20 06:59:59;;;;;;;24.85;13.07;;;7.60;99.90;;;-144.05;69.13;56938.03;4994627;28;20040;-77
2023/03/20 07:02:25;;;;;;;27.45;13.88;;;7.60;99.90;;;-144.05;69.03;56938.03;5012416;28;20053;-77
2023/03/20 07:04:51;;;;;;;27.27;12.63;;;7.60;99.90;;;-144.05;68.97;56923.19;5012622;28;20105;-76
2023/03/20 07:07:17;;;;;;;26.65;14.05;;;7.70;99.90;;;-144.05;68.63;56957.16;5012617;28;20425;-76
2023/03/20 07:09:44;;;;;;;28.98;13.05;;;7.70;99.90;;;-144.05;68.19;56931.66;5012827;28;20038;-76
2023/03/20 07:12:18;;;;;;;23.25;12.70;;;7.80;99.90;;;-144.05;68.62;56910.44;5012775;28;20417;-76
2023/03/20 07:14:45;;;;;;;27.10;12.52;;;7.80;99.90;;;-144.05;67.75;56931.66;5012855;28;20091;-78
2023/03/20 07:17:12;;;;;;;19.63;11.30;;;7.80;99.90;;;-144.05;67.93;56955.03;5012793;28;20033;-77
2023/03/20 07:19:38;;;;;;;24.13;12.10;;;7.80;99.90;;;-144.05;67.42;56912.56;5012444;28;20030;-76
2023/03/20 07:22:19;;;;;;;22.98;12.05;;;7.90;99.90;;;-144.05;66.91;56931.66;5012391;28;20124;-77
2023/03/20 07:24:45;;;;;;;24.60;11.93;;;8.00;99.90;;;-144.05;66.51;56938.03;5013629;28;20129;-78
2023/03/20 07:27:11;;;;;;;23.48;12.27;;;8.10;99.90;;;-144.05;65.78;56935.91;4994995;28;20030;-77
2023/03/20 07:29:37;;;;;;;21.00;11.32;;;8.10;99.90;;;-144.05;65.53;56935.91;5013557;28;20416;-77
2023/03/20 07:32:03;;;;;;;21.65;12.18;;;8.20;99.90;;;-144.05;64.71;56921.06;5014254;28;20121;-76
2023/03/20 07:34:29;;;;;;;19.52;10.63;;;8.30;99.90;;;-144.05;64.31;56942.28;5013146;28;20032;-77
2023/03/20 07:36:55;;;;;;;19.98;9.77;;;8.30;99.90;;;-144.05;64.42;56929.53;5012866;28;20022;-78
2023/03/20 07:39:21;;;;;;;19.15;10.15;;;8.30;99.90;;;-144.05;64.14;56948.66;5012572;28;20044;-82
2023/03/20 07:41:47;;;;;;;19.13;10.13;;;8.40;99.90;;;-144.05;63.40;56929.53;4996009;28;20025;-76
2023/03/20 07:44:13;;;;;;;20.15;9.50;;;8.50;99.90;;;-144.05;63.03;56904.06;5013588;28;20030;-77
2023/03/20 07:46:40;;;;;;;18.90;10.15;;;8.50;99.90;;;-144.05;62.95;56935.91;5012344;28;20033;-77
2023/03/20 07:49:06;;;;;;;19.52;10.38;;;8.50;99.90;;;-144.05;62.36;56921.06;5016776;28;20022;-76
2023/03/20 07:51:32;;;;;;;19.25;9.20;;;8.60;99.90;;;-144.05;61.80;56933.78;5015009;28;20033;-77
2023/03/20 07:53:58;;;;;;;17.08;8.60;;;8.70;99.90;;;-144.05;61.60;56925.28;5013754;28;20037;-77
2023/03/20 07:56:24;;;;;;;19.33;9.38;;;8.70;99.90;;;-144.05;61.22;56946.53;5013283;28;20420;-75
2023/03/20 07:58:50;;;;;;;18.48;8.55;;;8.80;99.90;;;-144.05;60.45;56923.19;5012902;28;20030;-76
2023/03/20 08:01:16;;;;;;;13.95;8.35;;;8.80;99.90;;;-144.05;59.95;56918.94;5012303;28;20133;-77
2023/03/20 08:03:42;;;;;;;13.65;7.28;;;8.90;99.90;;;-144.05;59.45;56927.41;5012802;28;20026;-76
2023/03/20 08:06:08;;;;;;;16.40;8.13;;;9.00;99.90;;;-144.05;59.21;56921.06;5014497;28;20571;-77
2023/03/20 08:08:34;;;;;;;14.48;7.63;;;9.20;99.90;;;-144.05;58.61;56942.28;5022876;28;20022;-76
2023/03/20 08:11:00;;;;;;;12.88;6.95;;;9.40;99.90;;;-144.05;58.43;56910.44;5012459;28;20056;-78
2023/03/20 08:13:27;;;;;;;13.10;6.72;;;9.50;99.90;;;-144.05;57.24;56942.28;5012180;28;20014;-76
2023/03/20 08:15:53;;;;;;;18.05;6.50;;;9.50;99.90;;;-144.05;57.35;56910.44;5013988;28;20420;-78
2023/03/20 08:18:21;;;;;;;11.93;6.63;;;9.50;99.90;;;-144.05;56.93;56929.53;5027075;28;20030;-76
2023/03/20 08:20:49;;;;;;;12.02;6.20;;;9.50;99.90;;;-144.05;57.82;56912.56;5028287;28;20119;-76
2023/03/20 08:23:16;;;;;;;9.75;5.65;;;9.40;99.90;;;-144.05;57.43;56929.53;5013800;28;20057;-75
2023/03/20 08:25:52;;;;;;;12.20;6.78;;;9.40;99.90;;;-144.05;56.79;56921.06;4995174;28;20064;-76
2023/03/20 08:28:20;;;;;;;9.05;5.07;;;9.50;99.90;;;-144.05;56.71;56940.16;4994696;28;20123;-77
2023/03/20 08:30:46;;;;;;;14.43;5.28;;;9.50;99.90;;;-144.05;56.49;56929.53;5011916;28;20030;-75
2023/03/20 08:33:15;;;;;;;11.18;5.65;;;9.50;99.90;;;-144.05;56.10;56925.28;5013099;28;20105;-77
2023/03/20 08:35:42;;;;;;;7.53;4.22;;;9.40;99.90;;;-144.05;55.58;56923.19;5012509;28;20034;-76
2023/03/20 08:38:14;;;;;;;10.32;5.00;;;9.50;99.90;;;-144.05;55.75;56944.41;5013884;28;20033;-78
2023/03/20 08:40:41;;;;;;;10.27;5.13;;;9.50;99.90;;;-144.05;55.58;56921.06;5017791;28;20092;-77
2023/03/20 08:43:08;;;;;;;9.13;5.10;;;9.50;99.90;;;-144.05;55.04;56950.78;5017295;28;20502;-77
2023/03/20 08:45:34;;;;;;;11.95;5.47;;;9.70;99.90;;;-144.05;54.49;56944.41;4999343;28;20052;-78
2023/03/20 08:48:00;;;;;;;12.45;6.22;;;9.90;99.90;;;-144.05;54.03;56933.78;5016797;28;20584;-77
2023/03/20 08:50:26;;;;;;;12.57;6.15;;;10.00;99.90;;;-144.05;54.60;56929.53;5015741;28;20105;-75
2023/03/20 08:52:52;;;;;;;16.65;6.43;;;10.00;99.90;;;-144.05;55.61;56925.28;5015457;28;20026;-76
2023/03/20 08:55:18;;;;;;;12.77;6.45;;;9.90;99.90;;;-144.05;54.56;56921.06;5018477;28;20037;-76
2023/03/20 08:57:45;;;;;;;26.73;6.47;;;9.80;99.90;;;-144.05;54.55;56931.66;5016349;28;20032;-77
2023/03/20 09:00:15;;;;;;;12.95;6.40;;;9.80;99.90;;;-144.05;55.87;56904.06;5015073;28;20022;-78
2023/03/20 09:02:42;;;;;;;11.07;5.95;;;9.70;99.90;;;-144.05;55.33;56916.81;4997574;28;20045;-77
2023/03/20 09:05:10;;;;;;;11.52;6.07;;;9.90;99.90;;;-144.05;54.70;56925.28;5015618;28;20034;-77
2023/03/20 09:07:37;;;;;;;19.88;6.93;;;9.90;99.90;;;-144.05;54.95;56916.81;5015537;28;20361;-78
2023/03/20 09:10:04;;;;;;;12.27;6.30;;;10.00;99.90;;;-144.05;53.28;56925.28;5015280;28;20505;-77
2023/03/20 09:12:31;;;;;;;11.80;6.25;;;10.10;99.90;;;-144.05;52.97;56942.28;5015501;28;20034;-75
2023/03/20 09:14:58;;;;;;;17.10;7.15;;;9.90;99.90;;;-144.05;52.82;56938.03;5014803;28;20540;-77
2023/03/20 09:17:24;;;;;;;13.00;7.18;;;9.80;99.90;;;-144.05;53.09;56935.91;5014709;28;20128;-75
2023/03/20 09:19:50;;;;;;;14.13;6.40;;;9.70;99.90;;;-144.05;53.13;56940.16;5014352;28;20081;-73
2023/03/20 09:22:17;;;;;;;13.63;6.90;;;9.70;99.90;;;-144.05;52.00;56921.06;4996947;28;20445;-75
2023/03/20 09:24:44;;;;;;;16.17;6.97;;;9.70;99.90;;;-144.05;52.38;56921.06;5014740;28;20453;-74
2023/03/20 09:27:12;;;;;;;16.95;7.35;;;9.50;99.90;;;-144.05;52.49;56923.19;5014774;28;20040;-75
2023/03/20 09:29:40;;;;;;;13.27;6.55;;;9.50;99.90;;;-144.05;51.89;56931.66;5014623;28;20408;-75
2023/03/20 09:32:07;;;;;;;15.75;6.38;;;9.50;99.90;;;-144.05;52.22;56921.06;5014384;28;20038;-76
2023/03/20 09:34:33;;;;;;;14.15;6.38;;;9.50;99.90;;;-144.05;51.65;56931.66;5014403;28;20045;-74
2023/03/20 09:37:01;;;;;;;17.13;6.35;;;9.50;99.90;;;-144.05;51.88;56933.78;4996823;28;20022;-74
2023/03/20 09:39:26;;;;;;;13.93;6.18;;;9.50;99.90;;;-144.05;52.09;56891.31;5014455;28;20057;-75
2023/03/20 09:41:53;;;;;;;13.10;6.18;;;9.40;99.90;;;-144.05;51.95;56938.03;5014777;28;20397;-75
2023/03/20 09:44:50;;;;;;;12.95;6.63;;;9.40;99.90;;;-144.05;51.98;56931.66;5014227;28;20105;-76
2023/03/20 09:47:34;;;;;;;12.32;5.70;;;9.40;99.90;;;-144.05;52.17;56912.56;5013883;28;20103;-74
2023/03/20 09:50:51;;;;;;;12.43;5.97;;;9.40;99.90;;;-144.05;51.42;56940.16;5013733;28;20022;-75
2023/03/20 09:53:35;;;;;;;11.80;5.43;;;9.50;99.90;;;-144.05;50.91;56927.41;4973328;28;20073;-76
2023/03/20 09:56:03;;;;;;;12.50;5.45;;;9.60;99.90;;;-144.05;51.47;56944.41;5014217;28;20269;-76
2023/03/20 09:58:38;;;;;;;12.50;5.15;;;9.60;99.90;;;-144.05;50.89;56938.03;4996537;28;20072;-76
2023/03/20 10:01:13;;;;;;;8.18;4.43;;;9.60;99.90;;;-144.05;50.97;56938.03;5014514;28;20559;-76
2023/03/20 10:03:54;;;;;;;13.60;4.53;;;9.70;99.90;;;-144.05;51.56;56931.66;5014597;28;20065;-76
2023/03/20 10:06:20;;;;;;;13.43;5.20;;;9.80;99.90;;;-144.05;50.94;56942.28;5014181;28;20484;-76
2023/03/20 10:08:46;;;;;;;12.05;5.78;;;9.70;99.90;;;-144.05;51.03;56925.28;5013787;28;20030;-75
2023/03/20 10:12:23;;;;;;;11.13;4.60;;;9.80;99.90;;;-144.05;50.81;56914.69;5014094;28;20179;-76
2023/03/20 10:15:36;;;;;;;12.18;5.53;;;9.70;99.90;;;-144.05;51.06;56942.28;4937118;28;20045;-76
2023/03/20 10:18:24;;;;;;;9.23;4.60;;;9.70;99.90;;;-144.05;50.58;56940.16;5013567;28;20030;-75
2023/03/20 10:21:17;;;;;;;8.02;4.32;;;9.80;99.90;;;-144.05;51.22;56931.66;5012368;28;20033;-75
2023/03/20 10:24:18;;;;;;;13.82;5.43;;;9.80;99.90;;;-144.05;50.96;56923.19;5013921;28;20052;-77
2023/03/20 10:26:51;;;;;;;7.07;4.07;;;9.80;99.90;;;-144.05;50.05;56925.28;5013690;28;20474;-77
2023/03/20 10:30:25;;;;;;;8.05;3.90;;;9.90;99.90;;;-144.05;48.73;56912.56;5015290;28;20089;-76